Taylors, SC (29687)

4:07 PM EDT on September 17, 2014 (GMT -0400)
Edward's Forest | Change Station
CLOSE
Current Station
Personal Weather Station
Location: Taylors, SC
Elevation: 1000 ft
Nearby Weather Stations

Elev 1000 ft 34.93 °N, 82.33 °W | Updated 0 second ago

Overcast
Overcast
75.4 °F
Feels Like 76 °F
N
0.0
Wind Variable Wind from NW
Gusts 5.0 mph

Today
High -- | Low -- °F
--% Chance of Precip.
Yesterday
High -- | Low -- °F
Precip. -- in
7:13 AM 7:33 PM
Waning Crescent, 33% visible
Pressure 29.95 in
Visibility 10.0 miles
Clouds Scattered Clouds 2000 ft
Scattered Clouds 5000 ft
Heat Index 76 °F
Dew Point 68 °F
Humidity 77%
Rainfall 0.00 in
Snow Depth Not available.
UV 4 out of 12
Pollen 6.90 out of 12
Ozone Good
PM2.5 Good
Flu Activity Not available.
SPECI KGMU 172000Z AUTO 09009KT 10SM SCT020 SCT050 24/17 A2995 RMK AO2 T02390172

More Conditions Fewer Conditions

Pressure 29.95 in
Visibility 10.0 miles
Clouds Scattered Clouds 2000 ft
Scattered Clouds 5000 ft
Heat Index 76 °F
Dew Point 68 °F
Humidity 77%
Rainfall 0.00 in
Snow Depth Not available.
UV 4 out of 12
Pollen 6.90 out of 12
Ozone Good
PM2.5 Good
Flu Activity Not available.
SPECI KGMU 172000Z AUTO 09009KT 10SM SCT020 SCT050 24/17 A2995 RMK AO2 T02390172

More Conditions Fewer Conditions

10-Day Weather Forecast

Almanac

Astronomy

Sep. 17, 2014 Rise Set
Actual Time 7:13 AM EDT 7:33 PM EDT
Civil Twilight 6:48 AM EDT 7:58 PM EDT
Nautical Twilight 6:18 AM EDT 8:28 PM EDT
Astronomical Twilight 5:48 AM EDT 8:58 PM EDT
Moon 1:22 AM EDT 3:32 PM EDT
Length of Visible Light 13h 10m
Length of Day
12h 19m
Tomorrow will be 2m 9s shorter.
Waning Crescent, 33% of the Moon is Illuminated
Today
Waning Crescent
Sep 24
New
Oct 1
First Quarter
Oct 8
Full
Oct 15
Last Quarter

Today's Extremes

State Highs State Lows

Community

WunderPhotos

Upload Photos

1,754,154 photos uploaded!

Nearby

Air Quality

  Air Quality AQ Index Pollutant
Yesterday Good
OZONE
Yesterday Good
PM2.5
Current Good
PM2.5
Current Good
OZONE
Wednesday Good
OZONE
Thursday Good
OZONE

Snow Depth

Station Depth Elevation
No new snow has been reported.

Earthquake Activity

City Distance Mag. Time & Date
No recent earthquake activity has been reported nearby.
Minimum magnitude displayed is 2.5.

Coastal Water Temperatures

Place Temperature
No Stations Reporting

Nearby Weather Stations